Harlev, Denmark
Current Conditions -  °F | °C
As of 1:20 PM on Friday 24 Oct 2014 (Local Time) from EKRK Reporting Station
Broken Clouds Broken Clouds  
Wind Chill: 54°   Ceiling: 4300
Heat Index: 54°   Visibility: 6mi
Dew Point: 50°   Wind: 12mph
Humidity: 88%   Direction: 180°S
Pressure: 30.12"   Gusts: NA
Location:  55.35°N, 12.23°E
Report Text: EKRK 241120Z AUTO 18010KT 9999NDV BKN043/// 12/10 Q1020
Loading
Personal Weather Stations






























Interactive Weather Map
Tropical Storm Tracking
New forecast layout! Learn more

10-Day Weather Forecast

Advertisements
Track Severe Weather on mobile